createdAt,value
2023-04-29T00:01:30.476Z,12.68
2023-04-29T00:03:57.123Z,12.95
2023-04-29T00:06:24.038Z,12.55
2023-04-29T00:08:52.241Z,12.15
2023-04-29T00:11:18.871Z,14.50
2023-04-29T00:13:45.402Z,14.32
2023-04-29T00:16:11.982Z,15.77
2023-04-29T00:18:38.481Z,15.45
2023-04-29T00:21:07.967Z,16.48
2023-04-29T00:23:34.637Z,18.20
2023-04-29T00:26:01.276Z,14.95
2023-04-29T00:28:28.097Z,13.93
2023-04-29T00:30:55.945Z,13.95
2023-04-29T00:33:22.746Z,13.43
2023-04-29T00:35:49.541Z,14.80
2023-04-29T00:38:16.293Z,14.98
2023-04-29T00:40:46.061Z,14.93
2023-04-29T00:43:13.508Z,14.75
2023-04-29T00:45:40.377Z,14.60
2023-04-29T00:48:07.914Z,14.73
2023-04-29T00:50:34.740Z,15.45
2023-04-29T00:53:01.430Z,14.52
2023-04-29T00:55:28.731Z,13.98
2023-04-29T00:57:56.048Z,13.13
2023-04-29T01:00:24.432Z,14.07
2023-04-29T01:02:51.119Z,13.48
2023-04-29T01:05:17.958Z,14.75
2023-04-29T01:08:06.214Z,14.23
2023-04-29T01:10:41.911Z,14.10
2023-04-29T01:13:19.008Z,13.77
2023-04-29T01:15:55.821Z,15.25
2023-04-29T01:18:27.977Z,15.30
2023-04-29T01:23:26.754Z,14.63
2023-04-29T01:25:53.356Z,10.87
2023-04-29T01:28:48.779Z,18.08
2023-04-29T01:31:24.601Z,17.60
2023-04-29T01:34:09.092Z,18.30
2023-04-29T01:36:50.894Z,17.85
2023-04-29T01:39:26.563Z,15.02
2023-04-29T01:42:37.375Z,17.95
2023-04-29T01:45:11.789Z,18.60
2023-04-29T01:47:39.241Z,17.67
2023-04-29T01:50:06.575Z,17.63
2023-04-29T01:52:33.772Z,17.40
2023-04-29T01:55:00.370Z,16.75
2023-04-29T01:57:35.963Z,18.75
2023-04-29T02:00:17.650Z,18.63
2023-04-29T02:02:50.175Z,18.52
2023-04-29T02:05:32.306Z,17.38
2023-04-29T02:07:59.201Z,19.17
2023-04-29T02:10:26.056Z,18.83
2023-04-29T02:13:01.470Z,17.95
2023-04-29T02:15:29.207Z,20.58
2023-04-29T02:17:56.112Z,20.98
2023-04-29T02:20:22.874Z,20.35
2023-04-29T02:22:49.552Z,20.85
2023-04-29T02:25:16.373Z,19.30
2023-04-29T02:27:43.134Z,19.23
2023-04-29T02:30:10.084Z,18.98
2023-04-29T02:32:39.400Z,20.15
2023-04-29T02:35:07.366Z,17.63
2023-04-29T02:37:34.490Z,18.65
2023-04-29T02:40:03.736Z,18.83
2023-04-29T02:42:30.805Z,19.65
2023-04-29T02:44:57.855Z,17.33
2023-04-29T02:47:24.695Z,17.85
2023-04-29T02:49:51.836Z,19.30
2023-04-29T02:52:19.048Z,20.35
2023-04-29T02:54:46.528Z,20.02
2023-04-29T02:57:13.146Z,20.00
2023-04-29T02:59:39.678Z,23.15
2023-04-29T03:02:06.255Z,20.52
2023-04-29T03:04:33.267Z,19.98
2023-04-29T03:06:59.835Z,24.20
2023-04-29T03:09:27.718Z,21.98
2023-04-29T03:11:54.473Z,21.30
2023-04-29T03:14:21.165Z,22.05
2023-04-29T03:16:48.514Z,21.15
2023-04-29T03:19:15.319Z,18.52
2023-04-29T03:21:41.878Z,19.75
2023-04-29T03:24:08.496Z,20.52
2023-04-29T03:26:36.830Z,19.08
2023-04-29T03:29:04.266Z,23.77
2023-04-29T03:31:30.962Z,21.75
2023-04-29T03:33:57.778Z,19.85
2023-04-29T03:36:24.402Z,19.38
2023-04-29T03:39:01.239Z,18.10
2023-04-29T03:41:28.915Z,18.67
2023-04-29T03:44:00.586Z,17.80
2023-04-29T03:46:29.094Z,18.25
2023-04-29T03:48:58.637Z,17.38
2023-04-29T03:51:26.142Z,17.85
2023-04-29T03:53:59.665Z,18.67
2023-04-29T03:56:26.471Z,18.70
2023-04-29T03:58:53.316Z,19.98
2023-04-29T04:01:21.954Z,18.50
2023-04-29T04:03:48.861Z,19.80
2023-04-29T04:06:15.598Z,18.60
2023-04-29T04:08:42.395Z,18.27
2023-04-29T04:13:38.205Z,19.52
2023-04-29T04:16:05.623Z,18.83
2023-04-29T04:18:32.443Z,19.42
2023-04-29T04:21:05.873Z,18.23
2023-04-29T04:23:32.647Z,18.17
2023-04-29T04:26:00.807Z,19.52
2023-04-29T04:28:46.346Z,19.10
2023-04-29T04:31:20.409Z,19.52
2023-04-29T04:33:47.018Z,20.27
2023-04-29T04:36:14.265Z,19.67
2023-04-29T04:38:41.132Z,20.42
2023-04-29T04:41:11.482Z,20.98
2023-04-29T04:43:40.873Z,20.63
2023-04-29T04:46:16.002Z,21.38
2023-04-29T04:49:00.483Z,21.17
2023-04-29T04:51:31.461Z,22.80
2023-04-29T04:53:58.097Z,21.67
2023-04-29T04:56:28.396Z,20.58
2023-04-29T04:58:55.051Z,21.15
2023-04-29T05:01:21.674Z,21.08
2023-04-29T05:03:48.464Z,22.63
2023-04-29T05:06:15.650Z,20.02
2023-04-29T05:08:45.478Z,20.73
2023-04-29T05:11:21.836Z,22.83
2023-04-29T05:14:18.524Z,21.63
2023-04-29T05:16:46.677Z,22.52
2023-04-29T05:19:13.446Z,22.70
2023-04-29T05:21:40.793Z,23.90
2023-04-29T05:24:13.761Z,23.92
2023-04-29T05:26:44.605Z,25.33
2023-04-29T05:29:12.227Z,24.95
2023-04-29T05:31:48.694Z,24.17
2023-04-29T05:34:15.756Z,25.00
2023-04-29T05:36:42.351Z,26.33
2023-04-29T05:39:09.064Z,26.45
2023-04-29T05:41:35.738Z,24.83
2023-04-29T05:44:32.825Z,28.08
2023-04-29T05:46:59.402Z,27.88
2023-04-29T05:49:25.909Z,26.92
2023-04-29T05:51:52.526Z,27.08
2023-04-29T05:54:19.107Z,29.05
2023-04-29T05:56:46.634Z,27.67
2023-04-29T05:59:13.553Z,27.65
2023-04-29T06:01:40.552Z,28.73
2023-04-29T06:04:08.243Z,27.92
2023-04-29T06:06:56.824Z,27.15
2023-04-29T06:09:42.757Z,26.67
2023-04-29T06:12:10.649Z,28.98
2023-04-29T06:14:37.326Z,28.33
2023-04-29T06:17:07.022Z,24.63
2023-04-29T06:19:34.141Z,25.10
2023-04-29T06:22:00.883Z,23.60
2023-04-29T06:24:27.566Z,26.40
2023-04-29T06:26:54.274Z,25.92
2023-04-29T06:29:21.018Z,24.00
2023-04-29T06:31:47.710Z,22.80
2023-04-29T06:34:14.556Z,23.48
2023-04-29T06:37:07.258Z,21.70
2023-04-29T06:39:59.916Z,21.75
2023-04-29T06:42:49.448Z,25.00
2023-04-29T06:45:42.655Z,22.88
2023-04-29T06:48:18.366Z,22.73
2023-04-29T06:50:55.907Z,20.15
2023-04-29T06:53:22.831Z,21.95
2023-04-29T06:55:50.960Z,19.30
2023-04-29T06:58:20.438Z,19.25
2023-04-29T07:00:48.802Z,21.42
2023-04-29T07:03:16.181Z,20.80
2023-04-29T07:05:45.412Z,20.70
2023-04-29T07:08:13.681Z,21.63
2023-04-29T07:10:41.653Z,17.40
2023-04-29T07:13:08.526Z,18.52
2023-04-29T07:15:36.411Z,19.35
2023-04-29T07:18:06.929Z,17.90
2023-04-29T07:20:36.828Z,18.17
2023-04-29T07:23:03.436Z,15.85
2023-04-29T07:25:30.911Z,13.60
2023-04-29T07:27:57.727Z,11.93
2023-04-29T07:30:28.489Z,11.98
2023-04-29T07:32:55.338Z,13.57
2023-04-29T07:35:22.373Z,13.00
2023-04-29T07:37:49.260Z,12.60
2023-04-29T07:40:15.930Z,11.98
2023-04-29T07:42:43.274Z,12.48
2023-04-29T07:45:10.399Z,11.02
2023-04-29T07:47:37.179Z,14.10
2023-04-29T07:50:05.278Z,11.20
2023-04-29T07:52:31.937Z,12.48
2023-04-29T07:54:58.615Z,10.55
2023-04-29T07:57:25.336Z,12.85
2023-04-29T07:59:55.126Z,12.25
2023-04-29T08:02:22.121Z,11.68
2023-04-29T08:04:51.476Z,10.40
2023-04-29T08:07:18.989Z,10.88
2023-04-29T08:09:45.775Z,10.50
2023-04-29T08:12:12.481Z,10.82
2023-04-29T08:14:40.350Z,12.27
2023-04-29T08:17:08.311Z,11.73
2023-04-29T08:19:35.016Z,11.35
2023-04-29T08:22:01.944Z,11.20
2023-04-29T08:24:29.677Z,11.07
2023-04-29T08:26:56.384Z,11.30
2023-04-29T08:29:22.884Z,9.65
2023-04-29T08:31:50.142Z,10.15
2023-04-29T08:34:16.861Z,9.55
2023-04-29T08:36:43.536Z,8.63
2023-04-29T08:39:10.450Z,9.48
2023-04-29T08:41:39.889Z,9.27
2023-04-29T08:44:06.837Z,8.57
2023-04-29T08:46:33.918Z,9.90
2023-04-29T08:49:03.852Z,9.20
2023-04-29T08:51:32.250Z,8.48
2023-04-29T08:53:58.878Z,8.52
2023-04-29T08:56:28.050Z,8.80
2023-04-29T08:58:59.021Z,8.13
2023-04-29T09:01:29.542Z,8.00
2023-04-29T09:04:15.894Z,7.40
2023-04-29T09:06:42.530Z,7.72
2023-04-29T09:09:09.682Z,8.60
2023-04-29T09:11:37.481Z,7.00
2023-04-29T09:14:08.149Z,7.40
2023-04-29T09:16:37.354Z,7.65
2023-04-29T09:19:04.041Z,7.40
2023-04-29T09:21:33.494Z,7.13
2023-04-29T09:24:01.835Z,7.65
2023-04-29T09:26:40.867Z,8.50
2023-04-29T09:29:14.131Z,8.00
2023-04-29T09:31:41.078Z,7.70
2023-04-29T09:34:08.152Z,7.43
2023-04-29T09:36:49.079Z,8.77
2023-04-29T09:39:20.702Z,7.78
2023-04-29T09:41:53.254Z,7.95
2023-04-29T09:44:20.633Z,7.45
2023-04-29T09:47:04.001Z,7.70
2023-04-29T09:49:33.032Z,8.10
2023-04-29T09:52:01.407Z,8.07
2023-04-29T09:54:33.066Z,7.60
2023-04-29T09:57:02.325Z,7.18
2023-04-29T09:59:28.934Z,7.90
2023-04-29T10:01:57.503Z,8.65
2023-04-29T10:04:26.413Z,10.43
2023-04-29T10:06:54.804Z,8.30
2023-04-29T10:09:23.123Z,9.57
2023-04-29T10:11:52.009Z,8.70
2023-04-29T10:14:24.860Z,8.40
2023-04-29T10:17:18.517Z,8.48
2023-04-29T10:19:58.849Z,9.98
2023-04-29T10:22:46.425Z,8.68
2023-04-29T10:25:15.124Z,9.27
2023-04-29T10:27:48.402Z,9.02
2023-04-29T10:30:19.871Z,9.52
2023-04-29T10:32:51.724Z,9.05
2023-04-29T10:35:22.759Z,9.40
2023-04-29T10:37:49.682Z,8.95
2023-04-29T10:40:27.990Z,9.15
2023-04-29T10:42:55.570Z,9.85
2023-04-29T10:45:29.983Z,8.90
2023-04-29T10:48:11.824Z,7.93
2023-04-29T10:51:01.382Z,7.15
2023-04-29T10:53:31.321Z,7.60
2023-04-29T10:56:09.349Z,7.13
2023-04-29T10:58:45.750Z,8.27
2023-04-29T11:01:17.681Z,8.50
2023-04-29T11:06:15.909Z,7.53
2023-04-29T11:08:45.557Z,8.65
2023-04-29T11:11:14.336Z,8.15
2023-04-29T11:13:40.996Z,8.60
2023-04-29T11:16:08.745Z,8.50
2023-04-29T11:18:36.946Z,8.00
2023-04-29T11:21:06.621Z,8.07
2023-04-29T11:23:37.246Z,9.13
2023-04-29T11:26:07.071Z,7.30
2023-04-29T11:28:34.140Z,8.40
2023-04-29T11:31:00.899Z,7.50
2023-04-29T11:33:28.070Z,7.82
2023-04-29T11:35:55.895Z,8.20
2023-04-29T11:38:30.385Z,8.85
2023-04-29T11:41:00.177Z,8.07
2023-04-29T11:43:26.883Z,8.15
2023-04-29T11:45:53.809Z,8.48
2023-04-29T11:48:26.585Z,8.00
2023-04-29T11:51:00.019Z,8.73
2023-04-29T11:53:30.408Z,7.93
2023-04-29T11:55:57.223Z,8.60
2023-04-29T11:58:24.812Z,7.55
2023-04-29T12:00:54.486Z,7.60
2023-04-29T12:03:21.838Z,7.53
2023-04-29T12:05:56.614Z,7.55
2023-04-29T12:08:28.020Z,7.70
2023-04-29T12:10:56.359Z,7.05
2023-04-29T12:13:24.520Z,6.80
2023-04-29T12:15:52.665Z,8.82
2023-04-29T12:18:19.949Z,7.40
2023-04-29T12:20:48.165Z,8.15
2023-04-29T12:23:17.962Z,7.55
2023-04-29T12:25:53.166Z,8.15
2023-04-29T12:28:20.952Z,6.88
2023-04-29T12:30:49.207Z,7.43
2023-04-29T12:33:19.794Z,7.50
2023-04-29T12:35:46.330Z,6.50
2023-04-29T12:38:18.254Z,7.10
2023-04-29T12:43:11.999Z,7.50
2023-04-29T12:45:39.052Z,7.30
2023-04-29T12:48:09.999Z,8.35
2023-04-29T12:50:49.640Z,7.25
2023-04-29T12:53:16.311Z,6.55
2023-04-29T12:55:42.948Z,6.72
2023-04-29T12:58:09.727Z,6.70
2023-04-29T13:00:37.893Z,7.78
2023-04-29T13:03:04.916Z,6.85
2023-04-29T13:05:31.802Z,8.18
2023-04-29T13:07:58.504Z,8.75
2023-04-29T13:10:26.499Z,9.07
2023-04-29T13:12:53.073Z,7.60
2023-04-29T13:15:19.718Z,8.10
2023-04-29T13:17:46.492Z,8.25
2023-04-29T13:20:13.458Z,7.68
2023-04-29T13:22:40.061Z,6.93
2023-04-29T13:25:07.320Z,7.07
2023-04-29T13:27:33.931Z,7.95
2023-04-29T13:30:00.979Z,7.60
2023-04-29T13:32:38.114Z,7.93
2023-04-29T13:35:11.374Z,7.97
2023-04-29T13:37:37.866Z,7.45
2023-04-29T13:40:07.220Z,8.13
2023-04-29T13:42:39.566Z,8.30
2023-04-29T13:45:16.230Z,7.75
2023-04-29T13:48:03.698Z,7.88
2023-04-29T13:58:43.740Z,7.90
2023-04-29T14:01:17.136Z,8.80
2023-04-29T14:03:35.647Z,8.60
2023-04-29T14:06:02.784Z,8.13
2023-04-29T14:08:29.419Z,8.43
2023-04-29T14:10:55.995Z,8.73
2023-04-29T14:13:22.729Z,8.15
2023-04-29T14:15:49.296Z,7.85
2023-04-29T14:18:15.973Z,7.72
2023-04-29T14:20:42.559Z,8.50
2023-04-29T14:23:09.106Z,7.97
2023-04-29T14:25:35.722Z,8.57
2023-04-29T14:28:02.396Z,7.95
2023-04-29T14:30:29.079Z,7.68
2023-04-29T14:32:58.296Z,9.00
2023-04-29T14:35:25.015Z,9.20
2023-04-29T14:37:51.706Z,8.90
2023-04-29T14:40:18.290Z,9.32
2023-04-29T14:42:44.862Z,9.07
2023-04-29T14:45:12.297Z,9.00
2023-04-29T14:47:38.919Z,8.57
2023-04-29T14:50:06.299Z,10.25
2023-04-29T14:52:32.886Z,9.20
2023-04-29T14:54:59.392Z,10.70
2023-04-29T14:57:26.336Z,9.98
2023-04-29T14:59:52.839Z,10.13
2023-04-29T15:02:20.357Z,9.82
2023-04-29T15:04:47.069Z,10.05
2023-04-29T15:07:14.157Z,10.95
2023-04-29T15:09:40.879Z,10.43
2023-04-29T15:12:08.713Z,11.13
2023-04-29T15:14:35.511Z,11.32
2023-04-29T15:17:02.114Z,11.35
2023-04-29T15:19:28.716Z,11.27
2023-04-29T15:21:55.751Z,11.82
2023-04-29T15:24:22.392Z,9.75
2023-04-29T15:26:49.767Z,10.43
2023-04-29T15:29:16.270Z,10.20
2023-04-29T15:31:42.965Z,10.32
2023-04-29T15:34:09.680Z,11.30
2023-04-29T15:36:36.583Z,12.00
2023-04-29T15:39:03.291Z,10.88
2023-04-29T15:41:29.891Z,11.02
2023-04-29T15:43:57.360Z,12.73
2023-04-29T15:46:24.598Z,11.98
2023-04-29T15:48:51.616Z,10.88
2023-04-29T15:51:18.724Z,10.45
2023-04-29T15:53:45.462Z,11.65
2023-04-29T15:56:12.199Z,11.93
2023-04-29T15:58:41.591Z,11.15
2023-04-29T16:03:28.145Z,11.07
2023-04-29T16:05:54.916Z,10.70
2023-04-29T16:08:21.439Z,10.82
2023-04-29T16:10:49.620Z,11.80
2023-04-29T16:13:16.153Z,11.15
2023-04-29T16:15:42.865Z,11.02
2023-04-29T16:18:09.676Z,11.30
2023-04-29T16:20:36.407Z,10.88
2023-04-29T16:23:03.004Z,11.20
2023-04-29T16:25:29.646Z,12.05
2023-04-29T16:27:56.482Z,11.27
2023-04-29T16:30:23.631Z,11.15
2023-04-29T16:32:50.498Z,10.73
2023-04-29T16:35:17.255Z,10.77
2023-04-29T16:37:43.789Z,10.50
2023-04-29T16:40:11.064Z,11.68
2023-04-29T16:42:38.760Z,13.48
2023-04-29T16:45:07.256Z,12.95
2023-04-29T16:47:35.354Z,12.32
2023-04-29T16:50:01.993Z,12.15
2023-04-29T16:52:28.894Z,10.93
2023-04-29T16:54:57.142Z,11.38
2023-04-29T16:57:26.508Z,12.00
2023-04-29T16:59:53.829Z,12.50
2023-04-29T17:02:21.072Z,13.85
2023-04-29T17:04:47.877Z,11.68
2023-04-29T17:07:15.791Z,17.98
2023-04-29T17:09:44.315Z,15.00
2023-04-29T17:12:10.939Z,16.00
2023-04-29T17:14:40.223Z,16.98
2023-04-29T17:17:07.271Z,17.60
2023-04-29T17:19:34.472Z,20.63
2023-04-29T17:22:00.998Z,18.48
2023-04-29T17:24:27.653Z,18.38
2023-04-29T17:26:54.267Z,18.77
2023-04-29T17:29:20.920Z,18.83
2023-04-29T17:31:54.482Z,17.58
2023-04-29T17:34:25.329Z,16.02
2023-04-29T17:36:53.202Z,16.08
2023-04-29T17:39:19.938Z,18.30
2023-04-29T17:41:46.731Z,18.38
2023-04-29T17:44:13.215Z,21.83
2023-04-29T17:46:43.084Z,31.10
2023-04-29T17:49:09.647Z,27.00
2023-04-29T17:51:36.444Z,36.47
2023-04-29T17:54:07.204Z,35.53
2023-04-29T17:56:35.049Z,32.00
2023-04-29T17:59:02.537Z,35.20
2023-04-29T18:01:29.348Z,43.00
2023-04-29T18:03:55.955Z,45.55
2023-04-29T18:06:22.652Z,42.80
2023-04-29T18:08:49.242Z,39.42
2023-04-29T18:11:15.760Z,33.30
2023-04-29T18:13:42.331Z,32.97
2023-04-29T18:16:09.134Z,34.70
2023-04-29T18:18:37.216Z,32.50
2023-04-29T18:21:04.552Z,29.40
2023-04-29T18:23:31.246Z,27.30
2023-04-29T18:25:58.013Z,24.80
2023-04-29T18:28:25.554Z,25.83
2023-04-29T18:30:52.718Z,27.42
2023-04-29T18:33:19.328Z,24.38
2023-04-29T18:35:46.233Z,25.83
2023-04-29T18:38:16.221Z,23.55
2023-04-29T18:40:45.981Z,25.52
2023-04-29T18:43:15.195Z,25.20
2023-04-29T18:45:41.850Z,25.52
2023-04-29T18:48:08.659Z,36.53
2023-04-29T18:50:35.361Z,35.97
2023-04-29T18:53:01.900Z,33.25
2023-04-29T18:55:28.848Z,36.70
2023-04-29T18:57:55.382Z,38.35
2023-04-29T19:00:22.187Z,39.85
2023-04-29T19:02:49.178Z,32.97
2023-04-29T19:05:16.412Z,34.50
2023-04-29T19:07:43.334Z,36.78
2023-04-29T19:10:10.366Z,35.33
2023-04-29T19:12:37.108Z,48.28
2023-04-29T19:15:04.067Z,38.45
2023-04-29T19:17:30.594Z,38.10
2023-04-29T19:19:57.296Z,35.92
2023-04-29T19:22:23.875Z,37.92
2023-04-29T19:24:50.490Z,37.63
2023-04-29T19:27:17.208Z,35.38
2023-04-29T19:29:43.926Z,36.22
2023-04-29T19:32:10.499Z,44.55
2023-04-29T19:34:37.176Z,50.95
2023-04-29T19:37:04.179Z,60.63
2023-04-29T19:39:30.857Z,55.83
2023-04-29T19:41:58.242Z,48.58
2023-04-29T19:44:28.042Z,47.75
2023-04-29T19:46:54.617Z,47.97
2023-04-29T19:49:21.312Z,47.00
2023-04-29T19:51:47.927Z,45.85
2023-04-29T19:54:14.476Z,41.45
2023-04-29T19:56:41.060Z,40.75
2023-04-29T19:59:07.704Z,38.85
2023-04-29T20:01:34.431Z,38.15
2023-04-29T20:04:01.018Z,36.97
2023-04-29T20:06:28.318Z,36.90
2023-04-29T20:08:54.827Z,34.95
2023-04-29T20:11:21.884Z,35.15
2023-04-29T20:13:52.160Z,37.53
2023-04-29T20:16:19.502Z,35.35
2023-04-29T20:18:47.085Z,37.83
2023-04-29T20:21:13.676Z,33.78
2023-04-29T20:23:40.208Z,33.90
2023-04-29T20:26:06.804Z,31.77
2023-04-29T20:28:33.370Z,32.10
2023-04-29T20:30:59.993Z,30.67
2023-04-29T20:33:29.803Z,30.88
2023-04-29T20:35:57.580Z,33.30
2023-04-29T20:38:24.737Z,39.25
2023-04-29T20:40:54.466Z,36.20
2023-04-29T20:43:23.733Z,33.78
2023-04-29T20:45:50.732Z,33.50
2023-04-29T20:48:17.911Z,34.47
2023-04-29T20:50:44.510Z,35.80
2023-04-29T20:53:11.111Z,36.88
2023-04-29T20:55:38.243Z,35.30
2023-04-29T20:58:04.916Z,36.78
2023-04-29T21:00:31.920Z,34.50
2023-04-29T21:02:58.455Z,34.95
2023-04-29T21:05:27.051Z,38.67
2023-04-29T21:07:53.621Z,40.17
2023-04-29T21:10:20.866Z,38.47
2023-04-29T21:12:47.463Z,40.42
2023-04-29T21:15:14.211Z,39.75
2023-04-29T21:17:40.714Z,39.20
2023-04-29T21:20:08.715Z,42.17
2023-04-29T21:22:35.479Z,44.33
2023-04-29T21:25:02.097Z,42.25
2023-04-29T21:27:28.741Z,45.42
2023-04-29T21:29:55.630Z,41.08
2023-04-29T21:32:22.406Z,40.70
2023-04-29T21:34:49.150Z,44.55
2023-04-29T21:37:15.926Z,40.63
2023-04-29T21:39:42.724Z,42.58
2023-04-29T21:42:10.895Z,40.70
2023-04-29T21:44:38.282Z,40.80
2023-04-29T21:47:05.016Z,40.35
2023-04-29T21:49:32.029Z,39.78
2023-04-29T21:51:59.447Z,38.13
2023-04-29T21:54:26.042Z,38.42
2023-04-29T21:59:12.880Z,39.92
2023-04-29T22:01:48.045Z,40.88
2023-04-29T22:04:19.047Z,42.10
2023-04-29T22:06:46.376Z,41.67
2023-04-29T22:09:13.064Z,44.72
2023-04-29T22:11:39.729Z,46.08
2023-04-29T22:14:06.603Z,46.92
2023-04-29T22:16:35.897Z,44.30
2023-04-29T22:19:03.074Z,46.53
2023-04-29T22:21:29.961Z,47.35
2023-04-29T22:23:56.464Z,44.25
2023-04-29T22:26:25.546Z,42.67
2023-04-29T22:28:52.538Z,43.17
2023-04-29T22:31:19.162Z,45.90
2023-04-29T22:33:46.189Z,43.17
2023-04-29T22:36:12.747Z,47.85
2023-04-29T22:38:39.291Z,50.78
2023-04-29T22:41:07.180Z,51.58
2023-04-29T22:43:33.677Z,53.20
2023-04-29T22:46:00.973Z,54.80
2023-04-29T22:48:28.117Z,56.05
2023-04-29T22:50:58.647Z,50.10
2023-04-29T22:53:26.646Z,53.03
2023-04-29T22:55:55.080Z,55.47
2023-04-29T22:58:22.054Z,60.17
2023-04-29T23:00:56.861Z,56.20
2023-04-29T23:03:24.251Z,53.90
2023-04-29T23:05:51.376Z,48.33
2023-04-29T23:08:18.081Z,50.67
2023-04-29T23:10:49.382Z,47.13
2023-04-29T23:13:16.589Z,40.30
2023-04-29T23:15:43.654Z,44.40
2023-04-29T23:18:10.448Z,39.60
2023-04-29T23:20:37.101Z,38.67
2023-04-29T23:23:04.959Z,37.30
2023-04-29T23:25:31.580Z,34.75
2023-04-29T23:27:58.202Z,32.20
2023-04-29T23:30:24.792Z,31.23
2023-04-29T23:32:51.394Z,29.40
2023-04-29T23:35:17.914Z,33.47
2023-04-29T23:37:44.600Z,31.35
2023-04-29T23:40:11.325Z,29.95
2023-04-29T23:42:37.884Z,28.50
2023-04-29T23:45:05.773Z,30.73
2023-04-29T23:47:32.399Z,28.02
2023-04-29T23:49:58.941Z,25.65
2023-04-29T23:52:25.697Z,26.27
2023-04-29T23:54:52.240Z,26.88
2023-04-29T23:57:18.798Z,25.92
2023-04-29T23:59:45.668Z,24.80
